AirNav   Duncan Aviation - Near you to keep you flying
 
 724 users online  

23AZ Moreton Airpark
Wickenburg, Arizona, USA

GOING TO WICKENBURG?


FAA INFORMATION EFFECTIVE 02 DECEMBER 2021

Location

FAA Identifier: 23AZ
Lat/Long: 34-01-10.1020N 112-49-32.6490W
34-01.168367N 112-49.544150W
34.0194728,-112.8257358
(estimated)
Elevation: 2455 ft. / 748.3 m (surveyed)
Variation: 13E (1985)
From city: 5 miles NW of WICKENBURG, AZ
Time zone: UTC -7 (year round; does not observe DST)
Zip code: 85390

Airport Operations

Airport use: Private use. Permission required prior to landing
Activation date: 07/1958
Control tower: no
ARTCC: ALBUQUERQUE CENTER
FSS: PRESCOTT FLIGHT SERVICE STATION
Attendance: UNATNDD
Wind indicator: yes
Segmented circle: no
Lights: FOR LIRL RY 13/31 CALL 602-315-0323.

Airport Communications

WX AWOS-3 at E25 (3 nm SE): 121.375 (928-684-2487)

Nearby radio navigation aids

VOR radial/distance  VOR name  Freq  Var
BXKr346/34.0BUCKEYE VORTAC110.6014E

Airport Services

Airframe service: NONE
Powerplant service: NONE

Runway Information

Runway 13/31

Dimensions: 4500 x 75 ft. / 1372 x 23 m
Surface: dirt
Runway edge lights: low intensity
RUNWAY 13  RUNWAY 31
Elevation: 2455.0 ft.
Traffic pattern: leftleft
Obstructions: nonehill, 600 ft. from runway

Runway 17/35

Dimensions: 2600 x 72 ft. / 792 x 22 m
Surface: dirt
RUNWAY 17  RUNWAY 35
Traffic pattern: leftleft

Runway 9/27

Dimensions: 2000 x 75 ft. / 610 x 23 m
Surface: dirt
RUNWAY 9  RUNWAY 27
Traffic pattern: leftleft
Obstructions: hill, 200 ft. from runwaynone

Airport Ownership and Management from official FAA records

Ownership: Privately-owned
Owner: MORETON AIRPARK, LLP
7526 E. WHISPERING WINDS ROAD
SCOTTSDALE, AZ 85250
Phone 602-315-0323
Manager: DANIEL P. KROPP
7526 E. WHISPERING WINDS ROAD
SCOTTSDALE, AZ 85250
Phone 602-315-0323

Airport Operational Statistics

Aircraft based on the field: 18
Single engine airplanes: 12
Multi engine airplanes: 2
Jet airplanes: 1
Helicopters: 2
Ultralights: 1
    

Additional Remarks

PERMISSION REQ TO LAND; CALL 602-315-0323 OR DPKROPP@GMAIL.COM
FOR CD CTC LUKE APCH AT 623-856-7361. IF UNA, CTC PHOENIX APCH AT 602-306-2565.

Instrument Procedures

There are no published instrument procedures at 23AZ.

Some nearby airports with instrument procedures:

KLUF - Luke Air Force Base (36 nm SE)
KGEU - Glendale Municipal Airport (40 nm SE)
KDVT - Phoenix Deer Valley Airport (42 nm SE)
KGYR - Phoenix Goodyear Airport (42 nm SE)
KPRC - Prescott Regional Airport - Ernest A Love Field (43 nm NE)
 
Loc | Ops | Rwys | IFR | FBO | Links
Com | Nav | Svcs | Stats | Notes
Area around 23AZ (Moreton Airpark)
 
Road maps at: MapQuest Bing Google
 
Aerial photo
WARNING: Photo may not be current or correct
Aerial photo of 23AZ (Moreton Airpark)
Do you have a better or more recent aerial photo of Moreton Airpark that you would like to share? If so, please send us your photo.

 
Sectional chart

 
Airport distance calculator
Flying to Moreton Airpark? Find the distance to fly.

From to 23AZ

Sunrise and sunset
Times for 04-Dec-2021
 Local
(UTC-7)
 Zulu
(UTC)
Morning civil twilight06:5513:55
Sunrise07:2214:22
Sunset17:2100:21
Evening civil twilight17:4800:48

Current date and time
Zulu (UTC)  04-Dec-2021 13:26:28
Local (UTC-7)  04-Dec-2021 06:26:28
 
METAR
KBXK 
37nm S 
041315Z AUTO 00000KT 10SM 10/M04 A3006 RMK A01
KLUF 
38nm SE 
041258Z AUTO 02004KT 10SM CLR 10/00 A3005 RMK AO2 SLP172 T00990002 $
KGEU 
39nm SE 
040249Z 00000KT 10SM SKC 19/01 A3001 RMK LAST
KGYR 
43nm SE 
041247Z 00000KT 10SM SKC 11/01 A3006 RMK FIRST
KDVT 
43nm SE 
041253Z AUTO 00000KT 10SM CLR 09/01 A3006 RMK AO2 SLP167 T00940006
KPRC 
43nm NE 
041253Z 22003KT 10SM CLR 00/M06 A3020 RMK AO2 SLP200 T00001056 $
TAF
KLUF 
38nm SE 
032328Z 0323/0502 VRB06KT 9999 SKC QNH2995INS TX26/0323Z TN10/0413Z LAST NO AMDS AFT 0323 NEXT 0612
KDVT 
43nm SE 
041130Z 0412/0512 09005KT P6SM SKC FM041800 18004KT P6SM SKC FM050300 07004KT P6SM SKC
KPRC 
43nm NE 
040520Z 0406/0506 VRB04KT P6SM SKC
NOTAMs
Click for the latest NOTAMs
NOTAMs are issued by the DoD/FAA and will open in a separate window not controlled by AirNav.

 

 
 

Would you like to see your business listed on this page?

 If your business provides an interesting product or service to pilots, flight crews, aircraft, or users of the Moreton Airpark, you should consider listing it here.  To start the listing process, click on the button below
 
Add a business
 

Other Pages about Moreton Airpark

Update a link
 
Copyright © AirNav, LLC. All rights reserved. Privacy Policy  Contact